Time;durP1;ratioP1;P1;durP2;ratioP2;P2;SDS_P1;SDS_P2;PMS_P1;PMS_P2;Temp;Humidity;BMP_temperature;BMP_pressure;BME280_temperature;BME280_humidity;BME280_pressure;Samples;Min_cycle;Max_cycle;Signal;HPM_P1;HPM_P2
2022/03/30 00:01:13;;;;;;;15.48;4.72;;;;;;;8.37;66.88;100227.16;6111204;23;20076;-64
2022/03/30 00:03:40;;;;;;;5.47;5.15;;;;;;;8.35;66.48;100221.16;6109576;23;20248;-64
2022/03/30 00:06:06;;;;;;;4.90;4.60;;;;;;;8.33;66.05;100221.22;6112374;23;20288;-64
2022/03/30 00:08:33;;;;;;;4.60;4.30;;;;;;;8.34;67.13;100225.53;6082304;23;20013;-65
2022/03/30 00:11:00;;;;;;;4.32;4.13;;;;;;;8.31;67.17;100223.06;6103925;23;20014;-64
2022/03/30 00:13:27;;;;;;;4.75;4.55;;;;;;;8.30;67.74;100213.53;6125010;23;20013;-64
2022/03/30 00:15:54;;;;;;;6.07;5.78;;;;;;;8.31;66.98;100211.78;6126337;23;20016;-64
2022/03/30 00:18:21;;;;;;;4.47;4.28;;;;;;;8.25;67.44;100218.16;6116176;23;20037;-64
2022/03/30 00:20:48;;;;;;;6.93;5.10;;;;;;;8.24;67.80;100211.25;6112447;23;20009;-64
2022/03/30 00:23:14;;;;;;;4.10;3.90;;;;;;;8.22;67.71;100210.47;6114265;23;20419;-65
2022/03/30 00:25:41;;;;;;;4.53;4.35;;;;;;;8.02;68.04;100184.47;6112449;23;20115;-64
2022/03/30 00:28:08;;;;;;;3.95;3.75;;;;;;;8.19;68.94;100211.44;6110128;23;20521;-64
2022/03/30 00:30:34;;;;;;;5.15;4.85;;;;;;;8.22;68.80;100205.25;6114469;23;20029;-64
2022/03/30 00:33:01;;;;;;;4.38;4.07;;;;;;;7.97;68.28;100169.03;6110369;23;20077;-64
2022/03/30 00:35:28;;;;;;;4.45;4.25;;;;;;;7.79;67.51;100142.88;6113139;23;20522;-64
2022/03/30 00:37:54;;;;;;;5.88;5.60;;;;;;;8.18;67.91;100196.72;6110964;23;20033;-64
2022/03/30 00:40:20;;;;;;;4.40;4.20;;;;;;;8.13;68.44;100196.09;6102923;23;20575;-64
2022/03/30 00:42:47;;;;;;;5.68;5.28;;;;;;;8.12;68.20;100193.56;6108250;23;20447;-64
2022/03/30 00:45:16;;;;;;;4.38;4.18;;;;;;;8.19;67.41;100211.44;6112206;23;20013;-64
2022/03/30 00:47:44;;;;;;;6.18;5.80;;;;;;;8.17;67.20;100196.78;6115009;23;20363;-65
2022/03/30 00:50:15;;;;;;;4.10;3.90;;;;;;;7.85;66.93;100141.75;6107958;23;20017;-64
2022/03/30 00:52:44;;;;;;;4.90;4.60;;;;;;;8.19;68.34;100194.94;6114640;23;20036;-64
2022/03/30 00:55:13;;;;;;;4.00;3.80;;;;;;;8.17;67.65;100189.78;6100869;23;20036;-65
2022/03/30 00:57:41;;;;;;;5.28;4.90;;;;;;;8.18;67.67;100182.81;6113700;23;20398;-64
2022/03/30 01:00:12;;;;;;;3.83;3.70;;;;;;;8.13;68.14;100175.16;6110181;23;20045;-64
2022/03/30 01:02:43;;;;;;;4.03;3.83;;;;;;;8.11;68.62;100179.63;6112199;23;20040;-65
2022/03/30 01:05:11;;;;;;;4.07;3.88;;;;;;;8.09;68.44;100170.19;6110972;23;20026;-64
2022/03/30 01:07:37;;;;;;;3.90;3.75;;;;;;;8.08;69.43;100171.97;6108960;23;20247;-65
2022/03/30 01:10:04;;;;;;;4.85;4.55;;;;;;;8.10;69.39;100171.91;6112696;23;20021;-63
2022/03/30 01:12:32;;;;;;;6.00;5.60;;;;;;;7.95;68.72;100156.03;6110683;23;20057;-64
2022/03/30 01:14:59;;;;;;;4.47;4.28;;;;;;;8.02;68.24;100161.81;6131760;23;20024;-64
2022/03/30 01:17:26;;;;;;;4.60;4.40;;;;;;;8.07;67.78;100167.66;6121989;23;20025;-64
2022/03/30 01:19:53;;;;;;;5.57;5.38;;;;;;;8.03;67.80;100167.88;6107063;23;20136;-64
2022/03/30 01:22:19;;;;;;;4.30;4.05;;;;;;;8.07;68.01;100164.19;6119656;23;20013;-64
2022/03/30 01:24:45;;;;;;;5.93;5.63;;;;;;;8.04;67.89;100159.09;6109546;23;20033;-65
2022/03/30 01:27:12;;;;;;;5.13;4.70;;;;;;;7.98;68.30;100155.06;6106586;23;20037;-64
2022/03/30 01:32:25;;;;;;;4.05;3.85;;;;;;;7.84;70.49;100157.47;6107675;23;20013;-64
2022/03/30 01:34:57;;;;;;;5.68;5.45;;;;;;;7.57;71.17;100111.75;6105574;23;20013;-64
2022/03/30 01:37:24;;;;;;;3.50;3.40;;;;;;;7.67;72.51;100132.22;6108570;23;20100;-64
2022/03/30 01:39:51;;;;;;;6.45;5.85;;;;;;;7.68;71.93;100131.31;6105525;23;20268;-64
2022/03/30 01:42:18;;;;;;;4.30;4.10;;;;;;;7.65;72.52;100136.66;6111154;23;20117;-64
2022/03/30 01:44:44;;;;;;;5.15;4.95;;;;;;;7.65;72.80;100139.28;6111284;23;20126;-64
2022/03/30 01:47:11;;;;;;;4.13;3.92;;;;;;;7.25;72.50;100060.28;6113510;23;20255;-64
2022/03/30 01:49:37;;;;;;;4.00;3.80;;;;;;;7.62;73.17;100132.44;6112314;23;20271;-64
2022/03/30 01:52:04;;;;;;;3.70;3.60;;;;;;;7.62;71.06;100126.34;6114827;23;20025;-65
2022/03/30 01:54:35;;;;;;;4.70;4.40;;;;;;;7.63;72.07;100125.44;6113674;23;20028;-64
2022/03/30 01:57:02;;;;;;;4.45;4.25;;;;;;;7.54;72.67;100105.88;6117481;23;20569;-64
2022/03/30 01:59:29;;;;;;;4.00;3.80;;;;;;;7.61;72.42;100125.53;6122077;23;20028;-64
2022/03/30 02:01:55;;;;;;;5.47;5.22;;;;;;;7.60;72.76;100116.00;6112061;23;20584;-63
2022/03/30 02:04:24;;;;;;;4.75;4.45;;;;;;;7.58;70.46;100121.31;6113170;23;20216;-64
2022/03/30 02:06:51;;;;;;;5.72;5.38;;;;;;;7.57;72.28;100116.97;6116211;23;20289;-63
2022/03/30 02:09:17;;;;;;;5.93;5.45;;;;;;;7.46;71.82;100100.19;6111413;23;20013;-64
2022/03/30 02:11:44;;;;;;;5.90;5.60;;;;;;;7.22;71.33;100070.88;6090125;23;20331;-64
2022/03/30 02:14:10;;;;;;;3.85;3.47;;;;;;;7.40;72.69;100106.53;6113208;23;20044;-64
2022/03/30 02:16:37;;;;;;;4.20;3.90;;;;;;;7.26;72.70;100075.88;6098894;23;20037;-64
2022/03/30 02:19:03;;;;;;;4.28;3.85;;;;;;;7.48;72.03;100117.44;6087254;23;20276;-63
2022/03/30 02:21:30;;;;;;;4.75;4.47;;;;;;;7.48;71.63;100106.16;6117147;23;20059;-63
2022/03/30 02:23:56;;;;;;;5.55;5.25;;;;;;;7.45;70.60;100103.69;6112564;23;20300;-64
2022/03/30 02:26:23;;;;;;;3.58;3.47;;;;;;;7.44;70.87;100102.00;6117452;23;20018;-63
2022/03/30 02:28:51;;;;;;;5.72;5.45;;;;;;;7.41;72.00;100097.78;6112282;23;20056;-62
2022/03/30 02:31:18;;;;;;;3.60;3.50;;;;;;;7.37;72.53;100097.06;6111891;23;20165;-64
2022/03/30 02:33:45;;;;;;;5.10;4.90;;;;;;;7.27;72.32;100085.38;6112018;23;20018;-64
2022/03/30 02:36:13;;;;;;;3.60;3.40;;;;;;;7.37;71.02;100086.63;6112631;23;20009;-64
2022/03/30 02:38:40;;;;;;;6.03;5.65;;;;;;;7.34;72.27;100083.34;6114996;23;20057;-64
2022/03/30 02:41:08;;;;;;;5.07;4.85;;;;;;;6.95;72.15;100021.72;6102060;23;20021;-64
2022/03/30 02:43:35;;;;;;;3.90;3.70;;;;;;;7.31;71.77;100086.94;6091593;23;20025;-63
2022/03/30 02:46:02;;;;;;;4.15;3.95;;;;;;;7.26;71.94;100069.81;6115300;23;20085;-64
2022/03/30 02:48:29;;;;;;;4.40;3.78;;;;;;;6.86;71.62;100009.13;6118366;23;20506;-64
2022/03/30 02:50:58;;;;;;;5.60;5.35;;;;;;;6.95;72.48;100025.16;6116006;23;20029;-64
2022/03/30 02:53:25;;;;;;;4.22;3.92;;;;;;;7.18;72.56;100065.81;6114258;23;20035;-63
2022/03/30 02:55:52;;;;;;;18.08;17.17;;;;;;;7.01;72.30;100042.28;5973313;23;20225;-63
2022/03/30 02:58:21;;;;;;;3.42;3.33;;;;;;;7.09;72.40;100058.41;6116376;23;20014;-64
2022/03/30 03:00:49;;;;;;;5.68;5.38;;;;;;;7.06;72.92;100061.19;6110837;23;20021;-64
2022/03/30 03:03:16;;;;;;;3.95;3.78;;;;;;;6.99;72.74;100049.34;6117253;23;20025;-64
2022/03/30 03:05:43;;;;;;;5.03;4.82;;;;;;;7.02;72.25;100054.44;6111115;23;20021;-65
2022/03/30 03:08:11;;;;;;;4.00;3.80;;;;;;;6.98;72.27;100058.94;6112417;23;20023;-63
2022/03/30 03:10:41;;;;;;;3.33;3.22;;;;;;;6.96;72.21;100068.59;6116058;23;20458;-64
2022/03/30 03:13:08;;;;;;;3.50;3.40;;;;;;;6.92;72.91;100055.78;6124469;23;20025;-63
2022/03/30 03:15:36;;;;;;;5.80;5.45;;;;;;;6.88;73.83;100056.84;6131667;23;20017;-64
2022/03/30 03:18:04;;;;;;;4.53;4.28;;;;;;;6.44;73.51;99995.44;6121656;23;20033;-64
2022/03/30 03:20:32;;;;;;;3.45;3.35;;;;;;;6.50;73.79;100004.72;6120802;23;20029;-64
2022/03/30 03:23:02;;;;;;;4.47;4.25;;;;;;;6.79;73.93;100048.53;6120283;23;20291;-64
2022/03/30 03:25:32;;;;;;;4.38;4.18;;;;;;;6.60;74.59;100021.63;6121479;23;20079;-64
2022/03/30 03:28:00;;;;;;;4.32;4.13;;;;;;;6.72;74.40;100039.31;6108675;23;20422;-64
2022/03/30 03:30:28;;;;;;;4.22;4.03;;;;;;;6.72;74.39;100041.91;6116828;23;20490;-64
2022/03/30 03:32:56;;;;;;;4.80;4.60;;;;;;;6.69;73.83;100035.97;6111059;23;20029;-64
2022/03/30 03:35:22;;;;;;;4.18;3.97;;;;;;;6.67;74.20;100030.84;6097444;23;21986;-64
2022/03/30 03:37:49;;;;;;;6.07;5.78;;;;;;;6.74;74.66;100044.44;6107811;23;20423;-64
2022/03/30 03:40:17;;;;;;;4.18;3.85;;;;;;;6.71;75.39;100049.78;6124103;23;20009;-64
2022/03/30 03:42:43;;;;;;;4.63;4.43;;;;;;;6.68;74.26;100053.41;6112223;23;20029;-64
2022/03/30 03:45:09;;;;;;;3.40;3.30;;;;;;;6.54;74.90;100030.56;6118417;23;20354;-64
2022/03/30 03:47:36;;;;;;;4.72;4.47;;;;;;;6.61;75.19;100046.75;6121533;23;20027;-64
2022/03/30 03:50:03;;;;;;;4.47;4.22;;;;;;;6.55;75.85;100042.66;6118282;23;20440;-64
2022/03/30 03:52:31;;;;;;;4.30;4.10;;;;;;;6.54;76.45;100050.59;6111336;23;20045;-64
2022/03/30 03:54:57;;;;;;;4.50;4.30;;;;;;;6.52;74.96;100052.41;6116173;23;20083;-64
2022/03/30 03:57:24;;;;;;;5.45;4.93;;;;;;;6.52;75.51;100045.44;6117427;23;20025;-64
2022/03/30 03:59:51;;;;;;;6.45;6.15;;;;;;;6.55;74.98;100049.66;6110944;23;20025;-64
2022/03/30 04:02:17;;;;;;;4.53;4.22;;;;;;;6.50;75.37;100046.44;6111971;23;20018;-64
2022/03/30 04:04:44;;;;;;;5.55;5.30;;;;;;;6.29;75.72;100024.78;6109995;23;20438;-61
2022/03/30 04:07:11;;;;;;;3.95;3.75;;;;;;;6.42;75.99;100044.16;6110170;23;20052;-64
2022/03/30 04:09:37;;;;;;;4.55;4.25;;;;;;;5.54;75.77;99906.56;6113587;23;20053;-63
2022/03/30 04:12:05;;;;;;;5.47;5.03;;;;;;;6.41;76.15;100054.66;6112811;23;20045;-62
2022/03/30 04:14:31;;;;;;;4.90;4.50;;;;;;;6.09;76.09;100000.47;6131169;23;20570;-63
2022/03/30 04:16:58;;;;;;;3.92;3.72;;;;;;;6.35;76.97;100043.63;6126944;23;20037;-63
2022/03/30 04:19:25;;;;;;;3.20;3.10;;;;;;;6.32;76.50;100035.91;6079981;23;20024;-63
2022/03/30 04:21:52;;;;;;;5.70;5.25;;;;;;;6.25;77.37;100023.22;6085341;23;20010;-62
2022/03/30 04:24:20;;;;;;;3.38;3.28;;;;;;;6.29;77.24;100032.59;6060501;23;20023;-63
2022/03/30 04:26:46;;;;;;;5.15;4.85;;;;;;;6.25;77.84;100034.50;6080106;23;20038;-64
2022/03/30 04:29:13;;;;;;;3.75;3.55;;;;;;;6.26;77.34;100033.59;6083626;23;20017;-64
2022/03/30 04:31:39;;;;;;;3.90;3.72;;;;;;;6.26;78.24;100030.16;6081133;23;20092;-64
2022/03/30 04:34:06;;;;;;;3.55;3.35;;;;;;;6.27;76.82;100030.06;6060388;23;20009;-63
2022/03/30 04:36:32;;;;;;;4.40;3.60;;;;;;;6.23;77.56;100025.06;6087029;23;20089;-63
2022/03/30 04:38:59;;;;;;;5.43;5.20;;;;;;;6.24;78.45;100035.44;6078661;23;20439;-63
2022/03/30 04:41:26;;;;;;;6.38;5.85;;;;;;;6.21;77.42;100025.13;6087921;23;20179;-65
2022/03/30 04:43:52;;;;;;;5.47;5.25;;;;;;;6.18;77.70;100028.72;6080696;23;20388;-64
2022/03/30 04:46:19;;;;;;;5.75;3.75;;;;;;;6.17;77.59;100020.97;6086877;23;20014;-64
2022/03/30 04:48:46;;;;;;;6.10;5.80;;;;;;;6.09;77.48;100015.25;6081878;23;20012;-63
2022/03/30 04:51:12;;;;;;;3.40;3.30;;;;;;;6.15;78.12;100026.28;6077638;23;20021;-64
2022/03/30 04:53:38;;;;;;;4.32;4.13;;;;;;;6.04;78.78;100012.03;6083553;23;20198;-64
2022/03/30 04:56:06;;;;;;;3.83;3.63;;;;;;;6.07;79.00;100040.53;6081497;23;20029;-63
2022/03/30 04:58:32;;;;;;;3.40;3.30;;;;;;;6.06;79.62;100029.28;6091135;23;20026;-63
2022/03/30 05:00:59;;;;;;;4.30;4.10;;;;;;;6.05;78.46;100026.72;6079086;23;20396;-65
2022/03/30 05:03:25;;;;;;;4.35;4.15;;;;;;;5.99;78.93;100028.72;6060293;23;20103;-65
2022/03/30 05:05:52;;;;;;;5.05;4.85;;;;;;;5.97;79.06;100025.31;6081423;23;20081;-65
2022/03/30 05:08:18;;;;;;;3.30;3.20;;;;;;;5.60;78.86;99972.19;6081266;23;20014;-63
2022/03/30 05:10:48;;;;;;;6.05;5.75;;;;;;;5.90;79.52;100021.25;6077530;23;20085;-63
2022/03/30 05:13:15;;;;;;;3.60;3.40;;;;;;;5.89;80.71;100024.75;6088861;23;20010;-65
2022/03/30 05:15:41;;;;;;;4.75;4.35;;;;;;;5.87;79.66;100036.16;6104545;23;20021;-65
2022/03/30 05:18:08;;;;;;;3.78;3.58;;;;;;;5.83;79.47;100030.22;6077867;23;20036;-65
2022/03/30 05:20:35;;;;;;;3.75;3.55;;;;;;;5.78;80.61;100027.00;6091964;23;20088;-65
2022/03/30 05:23:01;;;;;;;4.75;4.55;;;;;;;5.76;81.74;100034.03;6110542;23;20510;-65
2022/03/30 05:25:27;;;;;;;3.75;3.63;;;;;;;5.66;81.64;100017.94;6109081;23;20115;-63
2022/03/30 05:27:54;;;;;;;5.40;5.20;;;;;;;5.53;80.43;99988.16;6111188;23;20587;-63
2022/03/30 05:30:21;;;;;;;3.45;3.35;;;;;;;5.66;82.17;100020.56;6110778;23;20021;-63
2022/03/30 05:32:48;;;;;;;5.68;5.45;;;;;;;5.69;81.75;100016.97;6112636;23;20030;-64
2022/03/30 05:35:15;;;;;;;3.25;3.15;;;;;;;5.34;81.44;99970.72;6121166;23;20050;-64
2022/03/30 05:37:45;;;;;;;3.75;3.60;;;;;;;5.56;82.59;100016.66;6107752;23;20029;-65
2022/03/30 05:40:12;;;;;;;3.30;3.20;;;;;;;5.45;82.70;99990.22;6115545;23;21089;-66
2022/03/30 05:42:39;;;;;;;3.22;3.13;;;;;;;5.35;83.20;99979.34;6113612;23;20026;-64
2022/03/30 05:45:06;;;;;;;5.30;5.00;;;;;;;5.24;82.39;99963.38;6112833;23;20021;-63
2022/03/30 05:47:32;;;;;;;23.98;4.13;;;;;;;5.62;82.44;100020.75;6118101;23;20033;-64
2022/03/30 05:49:59;;;;;;;4.30;4.10;;;;;;;5.65;82.71;100023.22;6112553;23;20074;-64
2022/03/30 05:52:26;;;;;;;3.58;3.47;;;;;;;5.67;82.32;100016.19;6122559;23;20046;-63
2022/03/30 05:54:52;;;;;;;4.72;4.53;;;;;;;5.25;82.98;99944.25;6106766;23;20734;-63
2022/03/30 05:57:21;;;;;;;4.03;3.83;;;;;;;5.75;81.76;100029.72;6115017;23;20164;-64
2022/03/30 05:59:48;;;;;;;5.95;5.55;;;;;;;5.71;82.45;100023.81;6123016;23;20035;-64
2022/03/30 06:02:15;;;;;;;4.00;3.80;;;;;;;5.81;82.14;100029.44;6107236;23;20041;-63
2022/03/30 06:04:42;;;;;;;5.03;4.75;;;;;;;5.72;82.37;100019.47;6100192;23;20015;-64
2022/03/30 06:07:09;;;;;;;4.05;3.85;;;;;;;5.82;82.29;100028.56;6110194;23;20029;-64
2022/03/30 06:09:35;;;;;;;3.30;3.20;;;;;;;5.61;81.43;100004.28;6112798;23;20017;-63
2022/03/30 06:12:08;;;;;;;4.28;4.07;;;;;;;5.79;82.91;100033.88;6108491;23;20025;-63
2022/03/30 06:14:35;;;;;;;3.70;3.60;;;;;;;5.40;82.44;99967.00;6101867;23;20032;-64
2022/03/30 06:17:03;;;;;;;4.00;3.80;;;;;;;5.64;82.73;100005.94;6099672;23;20028;-63
2022/03/30 06:19:33;;;;;;;4.40;4.00;;;;;;;5.73;82.74;100023.72;6107012;23;20391;-63
2022/03/30 06:22:08;;;;;;;3.47;3.38;;;;;;;5.64;82.36;100005.94;6105886;23;20418;-63
2022/03/30 06:24:36;;;;;;;4.10;3.90;;;;;;;5.74;82.26;100015.03;6098598;23;20488;-65
2022/03/30 06:27:04;;;;;;;4.30;4.10;;;;;;;5.50;83.25;99978.72;6099848;23;20029;-63
2022/03/30 06:29:32;;;;;;;4.53;4.32;;;;;;;5.92;83.04;100034.22;6111643;23;20017;-63
2022/03/30 06:31:59;;;;;;;3.50;3.40;;;;;;;6.07;82.26;100045.75;6127119;23;20096;-63
2022/03/30 06:34:26;;;;;;;3.72;3.53;;;;;;;6.19;82.56;100038.25;6122728;23;20038;-63
2022/03/30 06:36:53;;;;;;;5.85;5.55;;;;;;;5.98;81.11;99977.50;6114493;23;20022;-64
2022/03/30 06:39:19;;;;;;;3.90;3.75;;;;;;;6.31;80.51;100023.78;6115720;23;20064;-63
2022/03/30 06:41:48;;;;;;;5.28;5.07;;;;;;;6.36;79.85;100031.41;6104174;23;20458;-64
2022/03/30 06:44:15;;;;;;;3.70;3.60;;;;;;;6.52;78.67;100047.22;6096925;23;20042;-64
2022/03/30 06:46:41;;;;;;;4.32;4.13;;;;;;;5.44;78.72;99856.69;6112644;23;20522;-64
2022/03/30 06:49:11;;;;;;;3.95;3.75;;;;;;;6.75;76.70;100049.56;6093522;23;20021;-65
2022/03/30 06:51:38;;;;;;;4.10;3.90;;;;;;;5.98;76.39;99950.63;6113219;23;20103;-64
2022/03/30 06:54:05;;;;;;;4.10;3.90;;;;;;;6.70;76.22;100048.97;6107513;23;20085;-64
2022/03/30 06:56:32;;;;;;;3.70;3.45;;;;;;;6.79;75.98;100047.66;6122108;23;20188;-63
2022/03/30 06:58:59;;;;;;;4.45;4.25;;;;;;;6.79;75.87;100032.03;6108570;23;20342;-64
2022/03/30 07:01:32;;;;;;;3.70;3.60;;;;;;;6.98;76.54;100037.22;6111120;23;20458;-67
2022/03/30 07:03:58;;;;;;;3.90;3.70;;;;;;;6.89;74.98;100048.09;6111525;23;20976;-63
2022/03/30 07:06:25;;;;;;;4.60;4.30;;;;;;;7.04;75.93;100043.91;6108024;23;20493;-63
2022/03/30 07:11:37;;;;;;;3.70;3.60;;;;;;;6.74;74.70;100000.13;6107526;23;20088;-63
2022/03/30 07:14:03;;;;;;;3.60;3.50;;;;;;;6.83;74.09;100017.91;6101855;23;21237;-63
2022/03/30 07:16:30;;;;;;;5.50;4.55;;;;;;;7.01;73.64;100038.84;6107522;23;20096;-63
2022/03/30 07:18:57;;;;;;;4.50;4.30;;;;;;;6.77;74.50;100023.44;6108011;23;20824;-65
2022/03/30 07:21:23;;;;;;;5.38;4.95;;;;;;;6.62;76.12;99995.50;6104573;23;20014;-63
2022/03/30 07:23:50;;;;;;;6.45;6.13;;;;;;;6.38;75.67;99954.00;6090344;23;20443;-63
2022/03/30 07:26:16;;;;;;;3.50;3.40;;;;;;;6.55;75.72;99977.50;6097787;23;20450;-63
2022/03/30 07:28:49;;;;;;;6.95;6.28;;;;;;;6.95;75.47;100040.81;6099112;23;20028;-62
2022/03/30 07:31:15;;;;;;;3.83;3.70;;;;;;;7.01;76.68;100041.44;6104984;23;20193;-63
2022/03/30 07:33:42;;;;;;;9.93;5.05;;;;;;;6.87;75.47;100021.22;6113438;23;20083;-64
2022/03/30 07:36:08;;;;;;;3.50;3.40;;;;;;;7.04;75.67;100046.53;6106984;23;20025;-63
2022/03/30 07:38:35;;;;;;;3.90;3.72;;;;;;;7.12;75.37;100042.63;6113818;23;20032;-63
2022/03/30 07:41:02;;;;;;;4.10;3.90;;;;;;;6.89;74.26;100016.78;6108613;23;20443;-66
2022/03/30 07:43:28;;;;;;;4.22;3.90;;;;;;;7.19;74.15;100040.56;6116769;23;20705;-65
2022/03/30 07:45:55;;;;;;;5.93;5.63;;;;;;;7.23;73.96;100041.25;6110462;23;20025;-65
2022/03/30 07:48:22;;;;;;;4.00;3.80;;;;;;;6.84;71.78;99984.88;6092226;23;20088;-65
2022/03/30 07:50:48;;;;;;;6.25;5.95;;;;;;;7.27;72.86;100042.78;6112027;23;20025;-65
2022/03/30 07:53:15;;;;;;;3.33;3.22;;;;;;;7.51;72.49;100049.41;6109701;23;20013;-65
2022/03/30 07:55:41;;;;;;;5.32;4.88;;;;;;;7.58;71.35;100042.13;6110197;23;20037;-61
2022/03/30 07:58:08;;;;;;;5.10;4.25;;;;;;;7.70;70.97;100041.50;6115739;23;20041;-65
2022/03/30 08:00:35;;;;;;;3.70;3.60;;;;;;;7.51;70.70;100051.19;6112000;23;20065;-65
2022/03/30 08:03:01;;;;;;;3.33;3.22;;;;;;;7.52;71.94;100045.88;6114897;23;20060;-65
2022/03/30 08:05:28;;;;;;;3.97;3.78;;;;;;;7.45;71.20;100047.09;6113190;23;20041;-65
2022/03/30 08:07:55;;;;;;;5.75;5.45;;;;;;;7.19;71.87;100046.59;6103184;23;20032;-66
2022/03/30 08:10:22;;;;;;;3.60;3.50;;;;;;;7.34;71.43;100042.41;6086204;23;20382;-68
2022/03/30 08:12:48;;;;;;;5.20;5.00;;;;;;;7.50;72.12;100039.91;6117065;23;20090;-68
2022/03/30 08:15:16;;;;;;;4.28;3.97;;;;;;;7.64;71.02;100035.72;6098422;23;20041;-66
2022/03/30 08:17:43;;;;;;;5.95;5.63;;;;;;;7.88;69.72;100036.25;6100424;23;20277;-66
2022/03/30 08:22:25;;;;;;;4.28;4.07;;;;;;;7.97;70.16;100034.00;6116913;23;20080;-64
2022/03/30 08:22:58;;;;;;;4.55;4.35;;;;;;;8.23;68.77;100033.56;6118002;23;20401;-65
2022/03/30 08:25:24;;;;;;;3.83;3.63;;;;;;;8.28;67.81;100031.53;6118353;23;20045;-67
2022/03/30 08:27:51;;;;;;;6.07;5.78;;;;;;;8.04;67.87;99987.50;6086513;23;20412;-66
2022/03/30 08:30:17;;;;;;;4.07;3.83;;;;;;;8.39;67.84;100031.81;6120809;23;20041;-66
2022/03/30 08:32:44;;;;;;;4.80;4.60;;;;;;;8.28;67.08;100021.94;6114466;23;20024;-66
2022/03/30 08:35:12;;;;;;;4.80;4.50;;;;;;;8.10;67.36;99970.66;6126442;23;20025;-66
2022/03/30 08:37:39;;;;;;;4.78;4.47;;;;;;;8.55;66.56;100024.84;6080735;23;20088;-67
2022/03/30 08:40:07;;;;;;;4.45;4.25;;;;;;;8.55;66.40;100032.69;6107035;23;20009;-66
2022/03/30 08:42:35;;;;;;;3.63;3.53;;;;;;;8.27;65.78;99994.09;6118719;23;20381;-66
2022/03/30 08:45:06;;;;;;;5.43;5.00;;;;;;;8.61;64.86;100026.28;6100532;23;20569;-67
2022/03/30 08:47:33;;;;;;;4.70;4.47;;;;;;;8.73;64.91;100027.41;6122125;23;20021;-66
2022/03/30 08:50:01;;;;;;;3.85;3.72;;;;;;;8.77;65.34;100019.28;6116358;23;20305;-66
2022/03/30 08:52:27;;;;;;;5.22;4.85;;;;;;;8.99;65.06;100025.94;6119711;23;20018;-65
2022/03/30 08:54:54;;;;;;;5.43;5.22;;;;;;;9.09;63.85;100026.25;6116727;23;20029;-67
2022/03/30 08:57:20;;;;;;;5.22;4.93;;;;;;;8.67;63.30;100006.81;6113124;23;20084;-66
2022/03/30 09:00:17;;;;;;;5.15;4.95;;;;;;;8.89;63.34;100019.53;6121419;23;20017;-66
2022/03/30 09:02:49;;;;;;;5.30;5.10;;;;;;;9.08;62.86;100017.56;6091438;23;20037;-66
2022/03/30 09:05:25;;;;;;;4.25;4.03;;;;;;;9.13;61.69;99984.09;6116016;23;20083;-66
2022/03/30 09:07:56;;;;;;;5.68;5.38;;;;;;;9.30;61.23;99995.38;6112316;23;20047;-66
2022/03/30 09:10:28;;;;;;;4.75;4.45;;;;;;;9.53;60.55;100009.75;6111629;23;21114;-66
2022/03/30 09:12:56;;;;;;;6.03;5.72;;;;;;;9.49;60.78;100011.72;6118937;23;20025;-65
2022/03/30 09:15:23;;;;;;;4.18;3.92;;;;;;;9.16;60.06;99996.16;6115277;23;20014;-66
2022/03/30 09:17:57;;;;;;;5.55;5.32;;;;;;;9.34;61.55;100008.22;6117182;23;20439;-67
2022/03/30 09:20:27;;;;;;;4.90;4.60;;;;;;;9.59;60.27;100007.59;6118341;23;20026;-67
2022/03/30 09:22:56;;;;;;;5.88;5.57;;;;;;;9.73;58.63;100008.56;6094109;23;20014;-66
2022/03/30 09:25:47;;;;;;;5.32;4.35;;;;;;;9.58;58.79;100005.94;6104471;23;20414;-67
2022/03/30 09:28:18;;;;;;;4.40;4.20;;;;;;;9.35;58.54;99993.34;6095169;23;20018;-66
2022/03/30 09:30:45;;;;;;;5.32;5.13;;;;;;;8.91;60.14;99947.84;6116695;23;20085;-67
2022/03/30 09:33:16;;;;;;;4.65;4.38;;;;;;;8.96;60.11;99951.06;6104411;23;20466;-66
2022/03/30 09:35:45;;;;;;;8.02;6.95;;;;;;;9.72;58.30;99996.41;6114019;23;20112;-64
2022/03/30 09:38:15;;;;;;;5.20;4.78;;;;;;;9.80;56.50;99994.16;6120842;23;20036;-68
2022/03/30 09:40:49;;;;;;;4.35;4.15;;;;;;;9.86;56.68;100006.91;6125758;23;20189;-67
2022/03/30 09:43:23;;;;;;;3.97;3.78;;;;;;;9.95;57.82;99997.66;6122202;23;20083;-66
2022/03/30 09:46:14;;;;;;;6.07;5.78;;;;;;;10.09;56.29;100002.88;6106669;23;20086;-67
2022/03/30 09:48:55;;;;;;;5.10;4.80;;;;;;;10.19;56.27;100000.53;6120699;23;20025;-67
2022/03/30 09:51:24;;;;;;;4.13;3.92;;;;;;;9.77;56.47;99999.59;6111543;23;20592;-70
2022/03/30 09:53:51;;;;;;;4.45;4.22;;;;;;;9.83;55.11;99999.22;6116987;23;20067;-69
2022/03/30 09:56:20;;;;;;;4.30;4.05;;;;;;;9.73;55.44;99995.47;6123756;23;21311;-68
2022/03/30 09:58:47;;;;;;;6.13;5.65;;;;;;;9.85;54.69;99984.25;6124340;23;20029;-69
2022/03/30 10:01:23;;;;;;;3.78;3.67;;;;;;;9.87;55.69;99982.38;6115955;23;20013;-68
2022/03/30 10:03:59;;;;;;;5.95;5.65;;;;;;;9.93;54.98;99983.78;6118642;23;20032;-66
2022/03/30 10:06:28;;;;;;;4.05;3.85;;;;;;;10.00;54.97;99977.22;6124167;23;20114;-66
2022/03/30 10:09:02;;;;;;;4.60;4.40;;;;;;;10.15;55.72;99972.81;6109993;23;20100;-65
2022/03/30 10:11:29;;;;;;;4.45;4.25;;;;;;;10.43;53.86;99976.38;6113079;23;20620;-65
2022/03/30 10:13:59;;;;;;;5.20;5.00;;;;;;;10.00;54.35;99966.72;6116164;23;20268;-66
2022/03/30 10:16:43;;;;;;;4.65;4.43;;;;;;;10.28;54.63;99978.13;6122119;23;20025;-66
2022/03/30 10:19:11;;;;;;;4.68;4.38;;;;;;;10.27;53.92;99977.31;6106477;23;20288;-68
2022/03/30 10:21:49;;;;;;;3.80;3.70;;;;;;;10.06;53.35;99968.97;6104574;23;20451;-66
2022/03/30 10:24:25;;;;;;;4.43;4.22;;;;;;;10.05;54.41;99975.16;6102566;23;20013;-67
2022/03/30 10:27:00;;;;;;;6.35;5.95;;;;;;;10.43;54.07;99961.47;6114444;23;20622;-67
2022/03/30 10:29:29;;;;;;;3.85;3.72;;;;;;;10.73;54.58;99948.16;6110024;23;20410;-66
2022/03/30 10:32:18;;;;;;;6.18;5.88;;;;;;;10.92;51.25;99952.22;6109201;23;20418;-66
2022/03/30 10:34:50;;;;;;;5.32;5.13;;;;;;;11.13;52.91;99960.47;6124046;23;20025;-67
2022/03/30 10:37:29;;;;;;;4.85;4.63;;;;;;;10.78;52.35;99955.75;6090961;23;20025;-66
2022/03/30 10:40:04;;;;;;;5.93;5.65;;;;;;;10.62;51.48;99970.78;6105966;23;20013;-65
2022/03/30 10:42:46;;;;;;;4.40;4.20;;;;;;;11.01;51.26;99946.38;6112095;23;20026;-66
2022/03/30 10:45:18;;;;;;;5.72;5.32;;;;;;;11.28;50.37;99943.66;6080136;23;20092;-68
2022/03/30 10:48:06;;;;;;;6.05;5.65;;;;;;;11.27;50.56;99946.44;6108133;23;20036;-67
2022/03/30 10:50:51;;;;;;;5.00;4.70;;;;;;;9.92;50.48;99757.56;6113153;23;20029;-66
2022/03/30 10:53:30;;;;;;;4.13;3.92;;;;;;;11.24;50.21;99936.13;6085537;23;20469;-66
2022/03/30 10:56:14;;;;;;;6.28;5.97;;;;;;;11.40;49.97;99928.03;6108892;23;20728;-67
2022/03/30 10:58:55;;;;;;;4.75;4.53;;;;;;;11.52;49.69;99941.16;6116530;23;20070;-66
2022/03/30 11:01:22;;;;;;;5.47;5.18;;;;;;;11.45;49.00;99939.91;6113319;23;20018;-67
2022/03/30 11:04:03;;;;;;;7.20;6.82;;;;;;;11.38;50.08;99929.00;6112071;23;20064;-68
2022/03/30 11:06:31;;;;;;;3.80;3.70;;;;;;;11.20;48.66;99887.38;6089086;23;20018;-66
2022/03/30 11:08:59;;;;;;;4.82;4.63;;;;;;;11.55;50.46;99898.09;6109926;23;20950;-67
2022/03/30 11:11:43;;;;;;;4.95;4.55;;;;;;;10.71;48.64;99734.03;6115272;23;20024;-68
2022/03/30 11:14:33;;;;;;;5.10;4.80;;;;;;;12.00;46.91;99913.41;6087237;23;20029;-67
2022/03/30 11:17:14;;;;;;;5.47;5.18;;;;;;;11.90;47.79;99908.78;6111214;23;20495;-68
2022/03/30 11:19:46;;;;;;;5.57;5.18;;;;;;;11.95;47.66;99880.41;6120526;23;20063;-69
2022/03/30 11:22:23;;;;;;;4.88;4.50;;;;;;;12.21;46.96;99901.38;6114524;23;20210;-68
2022/03/30 11:25:19;;;;;;;6.35;6.05;;;;;;;12.28;46.24;99899.13;6097961;23;20240;-66
2022/03/30 11:27:58;;;;;;;6.47;6.13;;;;;;;12.17;47.42;99894.66;6093121;23;20039;-66
2022/03/30 11:30:30;;;;;;;5.28;5.03;;;;;;;12.02;46.70;99886.03;6109234;23;20100;-66
2022/03/30 11:33:32;;;;;;;4.57;4.37;;;;;;;11.85;47.59;99887.22;6103007;23;20017;-68
2022/03/30 11:36:00;;;;;;;5.60;5.28;;;;;;;12.10;48.61;99877.63;6038188;23;20954;-68
2022/03/30 11:38:37;;;;;;;5.00;4.70;;;;;;;12.09;48.14;99887.31;6110445;23;20093;-67
2022/03/30 11:41:06;;;;;;;4.95;4.75;;;;;;;12.03;46.11;99840.41;6110694;23;20079;-66
2022/03/30 11:46:31;;;;;;;5.32;5.03;;;;;;;11.70;47.68;99854.97;6115379;23;20072;-66
2022/03/30 11:49:03;;;;;;;5.38;5.18;;;;;;;11.81;48.44;99880.50;6116420;23;20032;-66
2022/03/30 11:51:30;;;;;;;5.38;5.15;;;;;;;11.93;47.08;99860.44;6121159;23;20025;-66